Aérodrome :
LOGIN :

S'inscrire | Disclaimer

   EN    FR    IT 

 










Légende :    VFR   VFR Marginal   IFR   IFR Intensif   IFR Très Intensif
Visi : 
Plafond : 
>= 8 km
>= 3000ft
5 à 8 km
1000 à 3000 ft
1500m à 5 km
500 à 1000 ft
800 à 1500m
200 à 500 ft
< 800m
< 200 ft
Symboles :   Orages  Brouillard  Fortes neiges  Fortes précipitations  Vent > 20 kt
SIGMETs :   Divers  Orages  Givrage  Turbulence  Onde Orograph.  Cendres Volcan.






- Altitude de l'aérodrome : 231 ft
- Code IATA : N/A


EGSY - MOD Saint Athan

DERNIER METAR :
  • 151350Z AUTO 06008KT //// // OVC005/// 15/14 Q1004

METARs EXPIRÉS :
  • 151320Z AUTO 06012KT //// // OVC007/// 15/14 Q1005
  • 151250Z 06012KT 4500 RA SCT006 BKN014 OVC036 15/14 Q1005
  • 151220Z 07008KT 3500 RADZ BKN014 OVC024 15/13 Q1006
  • 151150Z 07009KT 4500 RADZ BKN015 BKN030 15/13 Q1006
  • 151120Z 08010KT 8000 -RA BKN017 BKN031 15/13 Q1006
  • 151050Z 06012KT 9999 VCSH SCT029 BKN038 16/13 Q1006
  • 151020Z 06012KT 9999 -RA SCT043 15/13 Q1006
  • 150950Z 07010KT 8000 -RA BKN035 14/13 Q1007
  • 150920Z 07009KT 7000 -RA SCT034 BKN044 14/12 Q1007
  • 150850Z 07010KT 9999 -RA SCT041 15/12 Q1007

TAF TAF EGSY
Valide du 15 à 12h jusqu'au 15 à 21h UTC


151056Z 1512/1521 07012KT 9999 SCT025
TEMPO 1512/1521 6000 RA SHRA BKN010
PROB30
TEMPO 1512/1520 3000 +RA +SHRA BKN006 BKN020CB
BECMG 1515/1518 26010KT



MET'MAP, la Météo Aéronautique d'un coup d'oeil ! - Copyright ORBIFLY Décembre 2007 - Disclaimer

ORBIFLY MET'MAP TEAM :

Programmation & Développement : Alexandra Zaïnal
Sur une idée originale de : Baudouin d'Aumeries
Soutien technique & logistique : Manuel Goepfert
Assistance : Marc-Olivier Méhu




SOURCES & CREDITS :

   NOAA